NCAR-RAP Real-Time Weather Data

Output produced by METARs form (22 June 2017  22:12 UTC)
found at http://weather.rap.ucar.edu/surface/
 
Conditions at: KLOU observed 22 June 2017  21:53 UTC
Temperature: 23.9°C (75°F)
Dewpoint: 22.8°C (73°F) [RH = 94%]
Pressure (altimeter): 29.92 inches Hg (1013.3 mb)
[Sea-level pressure: 1012.6 mb]
Winds: from the SSE (150 degrees) at 6 MPH (5 knots; 2.6 m/s)
Visibility: 9 miles (14 km)
Ceiling: 1100 feet AGL
Clouds: broken clouds at 1100 feet AGL
broken clouds at 1900 feet AGL
overcast cloud deck at 11000 feet AGL
Present Weather: -RA  (light rain)
KLOU 222153Z 15005KT 9SM -RA BKN011 BKN019 OVC110 24/23 A2992 RMK AO2 SLP126 P0001 T02390228